createdAt,value
2023-07-16T00:04:47.519Z,65.44
2023-07-16T00:09:49.384Z,65.77
2023-07-16T00:14:51.228Z,66.29
2023-07-16T00:19:53.064Z,66.62
2023-07-16T00:24:54.989Z,66.76
2023-07-16T00:29:56.844Z,66.82
2023-07-16T00:34:58.716Z,67.10
2023-07-16T00:40:00.795Z,67.26
2023-07-16T00:45:03.470Z,67.39
2023-07-16T00:50:06.190Z,67.88
2023-07-16T00:55:09.331Z,68.08
2023-07-16T01:00:12.478Z,68.32
2023-07-16T01:05:14.477Z,68.93
2023-07-16T01:10:17.036Z,69.24
2023-07-16T01:15:20.843Z,69.55
2023-07-16T01:20:23.014Z,69.68
2023-07-16T01:25:34.152Z,69.96
2023-07-16T01:30:40.693Z,70.27
2023-07-16T01:35:44.547Z,70.59
2023-07-16T01:40:46.379Z,70.89
2023-07-16T01:45:48.425Z,71.09
2023-07-16T01:50:50.247Z,71.55
2023-07-16T01:55:52.302Z,72.36
2023-07-16T02:00:54.280Z,73.24
2023-07-16T02:05:56.191Z,73.53
2023-07-16T02:10:58.230Z,73.77
2023-07-16T02:16:00.193Z,74.26
2023-07-16T02:21:03.300Z,74.97
2023-07-16T02:26:05.404Z,75.50
2023-07-16T02:31:07.313Z,76.09
2023-07-16T02:36:09.252Z,76.76
2023-07-16T02:41:11.026Z,77.88
2023-07-16T02:46:12.833Z,78.69
2023-07-16T02:51:14.595Z,79.82
2023-07-16T02:56:17.836Z,79.49
2023-07-16T03:01:20.150Z,79.56
2023-07-16T03:06:23.022Z,79.66
2023-07-16T03:11:26.667Z,79.63
2023-07-16T03:16:29.158Z,79.75
2023-07-16T03:21:31.216Z,79.85
2023-07-16T03:26:33.075Z,78.76
2023-07-16T03:31:36.322Z,77.32
2023-07-16T03:36:38.329Z,75.70
2023-07-16T03:41:40.443Z,74.89
2023-07-16T03:46:42.448Z,73.92
2023-07-16T03:51:44.301Z,72.07
2023-07-16T03:56:46.129Z,70.16
2023-07-16T04:07:11.018Z,65.93
2023-07-16T04:12:12.829Z,63.95
2023-07-16T04:17:14.900Z,62.51
2023-07-16T04:22:16.996Z,61.25
2023-07-16T04:27:19.648Z,59.78
2023-07-16T04:32:21.504Z,58.52
2023-07-16T04:37:23.527Z,57.94
2023-07-16T04:42:25.405Z,56.95
2023-07-16T04:47:27.233Z,56.14
2023-07-16T04:52:29.053Z,55.47
2023-07-16T04:57:30.916Z,54.68
2023-07-16T05:02:33.844Z,54.09
2023-07-16T05:07:35.684Z,53.20
2023-07-16T05:12:37.914Z,51.95
2023-07-16T05:17:40.376Z,51.46
2023-07-16T05:22:42.525Z,50.72
2023-07-16T05:27:44.332Z,50.40
2023-07-16T05:32:46.255Z,49.41
2023-07-16T05:37:48.041Z,48.02
2023-07-16T05:42:49.997Z,47.84
2023-07-16T05:47:51.830Z,47.55
2023-07-16T05:52:53.772Z,46.37
2023-07-16T05:57:55.638Z,44.19
2023-07-16T06:02:57.708Z,42.71
2023-07-16T06:07:59.903Z,43.36
2023-07-16T06:13:01.686Z,44.27
2023-07-16T06:18:04.192Z,43.91
2023-07-16T06:23:06.283Z,44.94
2023-07-16T06:28:08.155Z,45.37
2023-07-16T06:33:10.008Z,45.85
2023-07-16T06:38:11.870Z,45.55
2023-07-16T06:43:13.745Z,47.06
2023-07-16T06:48:25.865Z,47.61
2023-07-16T06:53:46.443Z,48.16
2023-07-16T06:58:48.323Z,48.45
2023-07-16T07:03:50.363Z,48.90
2023-07-16T07:08:52.279Z,47.33
2023-07-16T07:13:54.250Z,46.94
2023-07-16T07:18:58.204Z,47.02
2023-07-16T07:24:00.035Z,46.39
2023-07-16T07:29:02.027Z,46.49
2023-07-16T07:34:03.923Z,46.22
2023-07-16T07:39:07.338Z,45.81
2023-07-16T07:44:09.122Z,46.38
2023-07-16T07:49:11.165Z,44.70
2023-07-16T07:54:12.908Z,44.29
2023-07-16T07:59:14.995Z,43.17
2023-07-16T08:04:16.933Z,43.45
2023-07-16T08:09:18.994Z,43.39
2023-07-16T08:14:20.913Z,43.28
2023-07-16T08:19:22.866Z,42.80
2023-07-16T08:24:26.382Z,42.41
2023-07-16T08:29:28.345Z,42.63
2023-07-16T08:34:30.192Z,43.87
2023-07-16T08:39:32.834Z,44.14
2023-07-16T08:44:35.271Z,43.42
2023-07-16T08:49:40.420Z,41.92
2023-07-16T08:54:46.456Z,41.52
2023-07-16T08:59:50.322Z,41.00
2023-07-16T09:04:56.102Z,41.38
2023-07-16T09:10:01.421Z,40.39
2023-07-16T09:15:05.335Z,39.12
2023-07-16T09:20:08.252Z,38.39
2023-07-16T09:25:11.407Z,39.66
2023-07-16T09:30:17.267Z,39.22
2023-07-16T09:35:19.279Z,38.56
2023-07-16T09:40:21.172Z,36.98
2023-07-16T09:45:23.430Z,36.31
2023-07-16T09:50:26.415Z,34.53
2023-07-16T09:55:29.069Z,34.03
2023-07-16T10:00:33.804Z,35.32
2023-07-16T10:05:38.833Z,37.36
2023-07-16T10:10:44.168Z,38.33
2023-07-16T10:15:57.946Z,39.84
2023-07-16T10:21:07.414Z,39.10
2023-07-16T10:26:13.597Z,38.01
2023-07-16T10:31:26.175Z,37.03
2023-07-16T10:36:28.583Z,36.20
2023-07-16T10:41:32.383Z,36.08
2023-07-16T10:46:34.832Z,35.37
2023-07-16T10:51:37.169Z,34.16
2023-07-16T10:56:39.405Z,34.80
2023-07-16T11:01:41.297Z,33.72
2023-07-16T11:06:43.234Z,32.28
2023-07-16T11:11:45.310Z,31.61
2023-07-16T11:16:48.138Z,31.29
2023-07-16T11:21:49.949Z,31.15
2023-07-16T11:26:52.875Z,31.33
2023-07-16T11:31:55.019Z,30.29
2023-07-16T11:37:07.421Z,28.73
2023-07-16T11:42:09.415Z,28.99
2023-07-16T11:47:11.331Z,28.73
2023-07-16T11:52:13.610Z,27.91
2023-07-16T11:57:15.446Z,29.32
2023-07-16T12:02:17.749Z,30.18
2023-07-16T12:07:34.330Z,30.01
2023-07-16T12:12:39.671Z,29.19
2023-07-16T12:17:41.726Z,29.43
2023-07-16T12:22:43.808Z,29.53
2023-07-16T12:27:45.700Z,29.50
2023-07-16T12:32:47.563Z,29.98
2023-07-16T12:37:49.486Z,29.41
2023-07-16T12:42:51.372Z,29.34
2023-07-16T12:47:53.324Z,28.07
2023-07-16T12:52:55.341Z,26.26
2023-07-16T12:57:57.185Z,25.62
2023-07-16T13:02:59.152Z,24.74
2023-07-16T13:08:01.274Z,24.10
2023-07-16T13:13:04.638Z,23.59
2023-07-16T13:18:06.524Z,24.06
2023-07-16T13:23:09.771Z,24.37
2023-07-16T13:28:11.866Z,23.23
2023-07-16T13:33:13.696Z,23.08
2023-07-16T13:38:15.830Z,22.64
2023-07-16T13:43:17.625Z,22.85
2023-07-16T13:48:19.577Z,23.95
2023-07-16T13:53:21.631Z,24.85
2023-07-16T13:58:23.565Z,26.83
2023-07-16T14:03:25.562Z,28.65
2023-07-16T14:08:28.983Z,29.78
2023-07-16T14:13:31.270Z,30.75
2023-07-16T14:18:33.106Z,31.67
2023-07-16T14:23:35.158Z,33.00
2023-07-16T14:28:37.214Z,33.89
2023-07-16T14:33:39.710Z,33.72
2023-07-16T14:38:41.609Z,34.34
2023-07-16T14:43:44.106Z,35.12
2023-07-16T14:48:47.038Z,36.38
2023-07-16T14:53:48.947Z,37.96
2023-07-16T14:58:51.000Z,38.79
2023-07-16T15:03:53.149Z,39.07
2023-07-16T15:08:55.090Z,39.57
2023-07-16T15:13:56.878Z,38.54
2023-07-16T15:18:58.741Z,37.35
2023-07-16T15:24:00.726Z,36.87
2023-07-16T15:29:02.613Z,36.85
2023-07-16T15:34:04.517Z,37.24
2023-07-16T15:39:07.649Z,37.98
2023-07-16T15:44:09.474Z,37.73
2023-07-16T15:49:12.129Z,38.12
2023-07-16T15:54:14.293Z,37.36
2023-07-16T15:59:16.152Z,35.03
2023-07-16T16:04:18.031Z,33.79
2023-07-16T16:09:26.097Z,32.02
2023-07-16T16:14:32.965Z,31.98
2023-07-16T16:19:35.705Z,32.29
2023-07-16T16:24:38.022Z,31.98
2023-07-16T16:29:39.854Z,32.65
2023-07-16T16:34:41.697Z,32.89
2023-07-16T16:39:44.099Z,34.88
2023-07-16T16:44:45.901Z,36.84
2023-07-16T16:49:47.935Z,37.70
2023-07-16T16:54:49.808Z,38.56
2023-07-16T16:59:52.385Z,39.46
2023-07-16T17:04:55.793Z,42.52
2023-07-16T17:09:57.936Z,43.30
2023-07-16T17:15:00.106Z,42.91
2023-07-16T17:20:02.212Z,42.51
2023-07-16T17:25:06.782Z,42.57
2023-07-16T17:30:09.625Z,42.23
2023-07-16T17:35:11.535Z,43.34
2023-07-16T17:40:15.870Z,44.00
2023-07-16T17:45:17.798Z,44.72
2023-07-16T17:50:19.963Z,45.95
2023-07-16T17:55:21.916Z,47.02
2023-07-16T18:00:25.685Z,48.12
2023-07-16T18:05:28.142Z,49.36
2023-07-16T18:10:30.429Z,49.91
2023-07-16T18:15:32.580Z,50.65
2023-07-16T18:20:34.460Z,51.57
2023-07-16T18:25:36.796Z,52.30
2023-07-16T18:30:38.657Z,53.21
2023-07-16T18:35:41.004Z,54.14
2023-07-16T18:40:43.131Z,54.83
2023-07-16T18:45:45.557Z,55.63
2023-07-16T18:50:47.539Z,56.29
2023-07-16T18:55:49.515Z,56.86
2023-07-16T19:00:54.627Z,57.42
2023-07-16T19:05:56.515Z,58.02
2023-07-16T19:10:58.401Z,58.90
2023-07-16T19:16:00.380Z,59.44
2023-07-16T19:21:02.208Z,59.89
2023-07-16T19:26:03.987Z,60.54
2023-07-16T19:31:06.552Z,61.21
2023-07-16T19:36:14.729Z,61.99
2023-07-16T19:41:17.266Z,63.80
2023-07-16T19:46:19.567Z,64.58
2023-07-16T19:51:21.744Z,65.73
2023-07-16T19:56:23.968Z,66.77
2023-07-16T20:01:26.081Z,67.18
2023-07-16T20:06:28.304Z,67.14
2023-07-16T20:11:30.107Z,68.82
2023-07-16T20:16:33.375Z,69.87
2023-07-16T20:21:35.321Z,70.36
2023-07-16T20:26:37.126Z,70.96
2023-07-16T20:31:39.600Z,71.99
2023-07-16T20:36:44.129Z,72.46
2023-07-16T20:41:46.486Z,73.62
2023-07-16T20:46:48.578Z,75.06
2023-07-16T20:51:51.379Z,75.18
2023-07-16T20:56:56.173Z,75.33
2023-07-16T21:01:58.485Z,76.01
2023-07-16T21:07:00.345Z,76.34
2023-07-16T21:12:02.319Z,77.03
2023-07-16T21:17:04.668Z,77.62
2023-07-16T21:22:06.996Z,78.16
2023-07-16T21:27:10.171Z,78.50
2023-07-16T21:32:12.724Z,78.34
2023-07-16T21:37:35.160Z,79.17
2023-07-16T21:42:37.078Z,79.58
2023-07-16T21:47:39.008Z,80.05
2023-07-16T21:52:41.312Z,80.13
2023-07-16T21:57:43.368Z,80.48
2023-07-16T22:02:45.229Z,80.57
2023-07-16T22:07:49.308Z,80.98
2023-07-16T22:12:51.135Z,81.31
2023-07-16T22:17:54.644Z,81.53
2023-07-16T22:22:56.650Z,81.62
2023-07-16T22:27:58.617Z,81.87
2023-07-16T22:33:00.397Z,82.19
2023-07-16T22:38:02.220Z,83.02
2023-07-16T22:43:04.742Z,83.41
2023-07-16T22:48:07.119Z,83.25
2023-07-16T22:53:09.061Z,83.42
2023-07-16T22:58:11.385Z,83.73
2023-07-16T23:03:14.745Z,84.34
2023-07-16T23:08:17.327Z,84.00
2023-07-16T23:13:20.996Z,84.11
2023-07-16T23:18:25.754Z,84.11
2023-07-16T23:23:27.836Z,84.86
2023-07-16T23:28:29.730Z,86.16
2023-07-16T23:33:33.433Z,85.83
2023-07-16T23:38:55.171Z,86.27
2023-07-16T23:43:57.173Z,87.34
2023-07-16T23:48:59.408Z,87.72
2023-07-16T23:54:16.327Z,88.29
2023-07-16T23:59:24.261Z,88.03
